createdAt,value
2023-02-13T00:00:11.386Z,10.00
2023-02-13T00:02:38.494Z,9.98
2023-02-13T00:05:05.553Z,9.99
2023-02-13T00:07:32.382Z,9.94
2023-02-13T00:09:59.337Z,9.92
2023-02-13T00:12:26.189Z,9.88
2023-02-13T00:14:53.165Z,9.87
2023-02-13T00:17:20.087Z,9.87
2023-02-13T00:19:47.086Z,9.84
2023-02-13T00:22:14.148Z,9.79
2023-02-13T00:24:41.151Z,9.77
2023-02-13T00:27:08.109Z,9.77
2023-02-13T00:29:35.013Z,9.78
2023-02-13T00:32:02.103Z,9.77
2023-02-13T00:34:29.168Z,9.75
2023-02-13T00:36:56.088Z,9.74
2023-02-13T00:39:22.960Z,9.72
2023-02-13T00:41:49.902Z,9.72
2023-02-13T00:44:16.833Z,9.74
2023-02-13T00:46:43.974Z,9.74
2023-02-13T00:49:11.014Z,9.73
2023-02-13T00:51:37.984Z,9.71
2023-02-13T00:54:05.043Z,9.68
2023-02-13T00:56:31.991Z,9.68
2023-02-13T00:58:59.087Z,9.65
2023-02-13T01:01:26.137Z,9.62
2023-02-13T01:03:53.088Z,9.63
2023-02-13T01:06:20.025Z,9.65
2023-02-13T01:08:47.047Z,9.67
2023-02-13T01:11:15.202Z,9.65
2023-02-13T01:13:42.080Z,9.63
2023-02-13T01:16:09.033Z,9.62
2023-02-13T01:18:35.988Z,9.59
2023-02-13T01:21:05.412Z,9.58
2023-02-13T01:23:34.370Z,9.59
2023-02-13T01:26:01.523Z,9.59
2023-02-13T01:28:28.713Z,9.58
2023-02-13T01:30:57.288Z,9.56
2023-02-13T01:33:25.033Z,9.55
2023-02-13T01:35:52.117Z,9.55
2023-02-13T01:38:19.380Z,9.51
2023-02-13T01:40:47.613Z,9.48
2023-02-13T01:43:14.818Z,9.47
2023-02-13T01:45:43.050Z,9.47
2023-02-13T01:48:12.931Z,9.47
2023-02-13T01:50:44.386Z,9.45
2023-02-13T01:53:13.506Z,9.48
2023-02-13T01:55:45.709Z,9.52
2023-02-13T01:58:14.966Z,9.53
2023-02-13T02:00:41.901Z,9.52
2023-02-13T02:03:13.157Z,9.43
2023-02-13T02:05:40.447Z,9.36
2023-02-13T02:08:09.988Z,9.31
2023-02-13T02:10:36.952Z,9.31
2023-02-13T02:13:07.199Z,9.29
2023-02-13T02:15:34.127Z,9.28
2023-02-13T02:18:00.979Z,9.28
2023-02-13T02:20:28.280Z,9.28
2023-02-13T02:23:08.467Z,9.28
2023-02-13T02:25:35.685Z,9.26
2023-02-13T02:28:05.677Z,9.25
2023-02-13T02:30:35.714Z,9.26
2023-02-13T02:33:05.660Z,9.27
2023-02-13T02:35:33.914Z,9.27
2023-02-13T02:38:03.845Z,9.26
2023-02-13T02:40:32.190Z,9.26
2023-02-13T02:43:02.210Z,9.26
2023-02-13T02:45:38.903Z,9.27
2023-02-13T02:48:13.131Z,9.28
2023-02-13T02:50:43.029Z,9.27
2023-02-13T02:53:10.304Z,9.22
2023-02-13T02:55:42.064Z,9.21
2023-02-13T02:58:14.885Z,9.21
2023-02-13T03:00:46.214Z,9.19
2023-02-13T03:03:19.624Z,9.19
2023-02-13T03:05:51.514Z,9.23
2023-02-13T03:08:38.639Z,9.21
2023-02-13T03:11:09.964Z,9.26
2023-02-13T03:13:40.074Z,9.27
2023-02-13T03:16:10.584Z,9.29
2023-02-13T03:18:43.121Z,9.28
2023-02-13T03:21:17.584Z,9.29
2023-02-13T03:23:47.540Z,9.29
2023-02-13T03:26:17.473Z,9.32
2023-02-13T03:28:53.604Z,9.31
2023-02-13T03:31:20.887Z,9.33
2023-02-13T03:33:54.922Z,9.34
2023-02-13T03:36:27.966Z,9.32
2023-02-13T03:38:57.907Z,9.33
2023-02-13T03:41:29.139Z,9.32
2023-02-13T03:43:57.315Z,9.33
2023-02-13T03:46:26.100Z,9.34
2023-02-13T03:48:57.186Z,9.34
2023-02-13T03:51:28.384Z,9.33
2023-02-13T03:53:59.710Z,9.34
2023-02-13T03:56:30.844Z,9.33
2023-02-13T03:59:02.627Z,9.32
2023-02-13T04:01:31.019Z,9.29
2023-02-13T04:04:02.842Z,9.28
2023-02-13T04:06:32.411Z,9.25
2023-02-13T04:08:59.359Z,9.25
2023-02-13T04:11:31.968Z,9.26
2023-02-13T04:14:01.296Z,9.25
2023-02-13T04:16:28.491Z,9.24
2023-02-13T04:18:56.455Z,9.21
2023-02-13T04:21:23.466Z,9.18
2023-02-13T04:23:50.365Z,9.18
2023-02-13T04:26:19.192Z,9.19
2023-02-13T04:28:46.145Z,9.18
2023-02-13T04:31:13.511Z,9.17
2023-02-13T04:33:40.765Z,9.17
2023-02-13T04:36:07.942Z,9.17
2023-02-13T04:38:34.790Z,9.17
2023-02-13T04:41:01.706Z,9.17
2023-02-13T04:43:28.669Z,9.13
2023-02-13T04:45:55.593Z,9.11
2023-02-13T04:48:22.543Z,9.10
2023-02-13T04:50:49.382Z,9.08
2023-02-13T04:53:16.529Z,9.07
2023-02-13T04:55:43.568Z,9.07
2023-02-13T04:58:10.575Z,9.05
2023-02-13T05:00:38.029Z,9.03
2023-02-13T05:03:06.537Z,9.00
2023-02-13T05:05:33.456Z,8.99
2023-02-13T05:08:00.900Z,8.97
2023-02-13T05:10:28.017Z,8.97
2023-02-13T05:12:54.892Z,8.96
2023-02-13T05:15:23.001Z,8.97
2023-02-13T05:17:50.215Z,8.97
2023-02-13T05:20:17.624Z,8.96
2023-02-13T05:22:49.061Z,8.97
2023-02-13T05:25:16.060Z,8.95
2023-02-13T05:27:42.987Z,8.94
2023-02-13T05:30:10.239Z,8.93
2023-02-13T05:32:37.862Z,8.91
2023-02-13T05:35:05.849Z,8.93
2023-02-13T05:37:32.731Z,8.92
2023-02-13T05:39:59.671Z,8.91
2023-02-13T05:42:26.769Z,8.91
2023-02-13T05:44:53.666Z,8.91
2023-02-13T05:47:20.587Z,8.88
2023-02-13T05:49:47.406Z,8.85
2023-02-13T05:52:14.236Z,8.83
2023-02-13T05:54:41.100Z,8.81
2023-02-13T05:57:08.198Z,8.78
2023-02-13T05:59:34.996Z,8.77
2023-02-13T06:02:01.874Z,8.75
2023-02-13T06:04:29.010Z,8.73
2023-02-13T06:06:55.840Z,8.72
2023-02-13T06:09:22.721Z,8.71
2023-02-13T06:11:49.564Z,8.70
2023-02-13T06:14:16.487Z,8.67
2023-02-13T06:16:43.422Z,8.70
2023-02-13T06:19:10.238Z,8.68
2023-02-13T06:21:38.769Z,8.63
2023-02-13T06:24:06.192Z,8.62
2023-02-13T06:26:33.307Z,8.62
2023-02-13T06:29:00.456Z,8.61
2023-02-13T06:31:27.359Z,8.58
2023-02-13T06:33:54.588Z,8.57
2023-02-13T06:36:21.383Z,8.56
2023-02-13T06:38:48.313Z,8.55
2023-02-13T06:41:15.103Z,8.53
2023-02-13T06:43:41.922Z,8.54
2023-02-13T06:46:09.406Z,8.56
2023-02-13T06:48:36.614Z,8.54
2023-02-13T06:51:03.578Z,8.55
2023-02-13T06:53:30.463Z,8.51
2023-02-13T06:55:57.409Z,8.51
2023-02-13T06:58:25.307Z,8.51
2023-02-13T07:00:52.644Z,8.48
2023-02-13T07:03:19.790Z,8.48
2023-02-13T07:05:46.683Z,8.48
2023-02-13T07:08:13.693Z,8.47
2023-02-13T07:10:41.496Z,8.50
2023-02-13T07:13:08.733Z,8.46
2023-02-13T07:15:35.737Z,8.46
2023-02-13T07:18:02.989Z,8.45
2023-02-13T07:20:29.977Z,8.45
2023-02-13T07:22:58.819Z,8.44
2023-02-13T07:25:25.760Z,8.44
2023-02-13T07:27:52.745Z,8.45
2023-02-13T07:30:19.922Z,8.45
2023-02-13T07:32:46.775Z,8.47
2023-02-13T07:35:13.750Z,8.45
2023-02-13T07:37:40.613Z,8.46
2023-02-13T07:40:11.402Z,8.48
2023-02-13T07:42:38.252Z,8.52
2023-02-13T07:45:06.591Z,8.51
2023-02-13T07:47:34.296Z,8.55
2023-02-13T07:50:01.760Z,8.57
2023-02-13T07:52:28.735Z,8.55
2023-02-13T07:54:55.639Z,8.58
2023-02-13T07:57:22.533Z,8.62
2023-02-13T07:59:49.455Z,8.63
2023-02-13T08:02:17.225Z,8.64
2023-02-13T08:04:47.532Z,8.64
2023-02-13T08:07:15.206Z,8.66
2023-02-13T08:09:45.334Z,8.71
2023-02-13T08:12:12.289Z,8.83
2023-02-13T08:14:39.265Z,8.87
2023-02-13T08:17:06.232Z,8.86
2023-02-13T08:19:33.137Z,8.89
2023-02-13T08:22:00.291Z,8.90
2023-02-13T08:24:27.481Z,8.92
2023-02-13T08:26:54.425Z,8.89
2023-02-13T08:29:21.536Z,8.91
2023-02-13T08:31:48.531Z,8.92
2023-02-13T08:34:15.523Z,8.95
2023-02-13T08:36:42.410Z,8.95
2023-02-13T08:39:10.093Z,9.01
2023-02-13T08:41:37.119Z,9.43
2023-02-13T08:44:04.183Z,9.80
2023-02-13T08:46:31.282Z,10.13
2023-02-13T08:48:58.408Z,10.22
2023-02-13T08:51:25.417Z,10.01
2023-02-13T08:53:52.376Z,9.84
2023-02-13T08:56:19.530Z,9.73
2023-02-13T08:58:49.133Z,9.66
2023-02-13T09:01:16.489Z,9.60
2023-02-13T09:03:43.589Z,9.52
2023-02-13T09:06:10.538Z,9.47
2023-02-13T09:08:37.547Z,9.45
2023-02-13T09:11:05.950Z,9.46
2023-02-13T09:13:34.731Z,9.48
2023-02-13T09:16:02.739Z,9.48
2023-02-13T09:18:30.071Z,9.47
2023-02-13T09:20:59.093Z,9.49
2023-02-13T09:23:26.212Z,9.49
2023-02-13T09:25:53.271Z,9.51
2023-02-13T09:28:20.279Z,9.52
2023-02-13T09:30:49.534Z,9.51
2023-02-13T09:33:16.618Z,9.50
2023-02-13T09:35:44.780Z,9.50
2023-02-13T09:38:12.099Z,9.55
2023-02-13T09:40:39.334Z,9.55
2023-02-13T09:43:09.318Z,9.56
2023-02-13T09:45:36.943Z,9.58
2023-02-13T09:48:04.669Z,9.60
2023-02-13T09:50:33.736Z,9.64
2023-02-13T09:53:00.782Z,9.71
2023-02-13T09:55:31.849Z,9.74
2023-02-13T09:58:02.070Z,9.78
2023-02-13T10:00:32.225Z,9.81
2023-02-13T10:02:59.722Z,9.84
2023-02-13T10:05:29.726Z,9.88
2023-02-13T10:07:56.962Z,9.94
2023-02-13T10:10:30.860Z,9.99
2023-02-13T10:13:00.844Z,10.04
2023-02-13T10:15:30.835Z,10.10
2023-02-13T10:18:00.831Z,10.14
2023-02-13T10:20:30.881Z,10.16
2023-02-13T10:23:00.946Z,10.19
2023-02-13T10:25:30.550Z,10.23
2023-02-13T10:28:00.734Z,10.28
2023-02-13T10:30:31.023Z,10.33
2023-02-13T10:33:04.092Z,10.37
2023-02-13T10:35:31.724Z,10.43
2023-02-13T10:38:00.112Z,10.47
2023-02-13T10:40:30.180Z,10.51
2023-02-13T10:43:00.154Z,10.52
2023-02-13T10:45:30.364Z,10.51
2023-02-13T10:47:57.777Z,10.58
2023-02-13T10:50:26.175Z,10.60
2023-02-13T10:52:56.420Z,10.66
2023-02-13T10:55:24.871Z,10.70
2023-02-13T10:58:02.063Z,10.75
2023-02-13T11:00:34.383Z,10.79
2023-02-13T11:03:01.679Z,10.83
2023-02-13T11:05:31.677Z,10.83
2023-02-13T11:08:00.177Z,10.85
2023-02-13T11:10:28.304Z,10.90
2023-02-13T11:12:56.948Z,10.93
2023-02-13T11:15:27.167Z,10.94
2023-02-13T11:17:55.554Z,10.93
2023-02-13T11:20:25.541Z,10.96
2023-02-13T11:22:52.667Z,10.98
2023-02-13T11:25:22.831Z,11.03
2023-02-13T11:27:50.727Z,11.07
2023-02-13T11:30:20.723Z,11.14
2023-02-13T11:32:56.652Z,11.20
2023-02-13T11:35:27.100Z,11.27
2023-02-13T11:37:57.192Z,11.30
2023-02-13T11:40:27.247Z,11.32
2023-02-13T11:42:54.241Z,11.37
2023-02-13T11:45:23.233Z,11.41
2023-02-13T11:47:50.570Z,11.45
2023-02-13T11:50:20.778Z,11.51
2023-02-13T11:52:50.792Z,11.53
2023-02-13T11:55:20.864Z,11.56
2023-02-13T11:57:56.611Z,11.60
2023-02-13T12:02:55.331Z,11.69
2023-02-13T12:05:24.014Z,11.73
2023-02-13T12:07:51.372Z,11.78
2023-02-13T12:10:21.453Z,11.82
2023-02-13T12:12:50.697Z,11.84
2023-02-13T12:15:19.602Z,11.89
2023-02-13T12:17:48.856Z,11.92
2023-02-13T12:20:17.395Z,11.96
2023-02-13T12:22:55.538Z,12.02
2023-02-13T12:25:25.522Z,12.07
2023-02-13T12:27:55.485Z,12.13
2023-02-13T12:30:25.439Z,12.16
2023-02-13T12:32:53.758Z,12.20
2023-02-13T12:35:23.940Z,12.25
2023-02-13T12:37:53.884Z,12.31
2023-02-13T12:40:25.063Z,12.36
2023-02-13T12:42:55.197Z,12.38
2023-02-13T12:45:22.606Z,12.40
2023-02-13T12:47:50.914Z,12.46
2023-02-13T12:50:27.579Z,12.49
2023-02-13T12:52:55.812Z,12.51
2023-02-13T12:55:29.369Z,12.54
2023-02-13T12:57:59.337Z,12.60
2023-02-13T13:00:26.894Z,12.65
2023-02-13T13:02:57.032Z,12.67
2023-02-13T13:05:27.693Z,12.73
2023-02-13T13:08:01.509Z,12.77
2023-02-13T13:10:28.901Z,12.83
2023-02-13T13:12:58.861Z,12.88
2023-02-13T13:15:33.357Z,12.89
2023-02-13T13:18:03.334Z,12.92
2023-02-13T13:20:31.633Z,12.93
2023-02-13T13:23:06.305Z,12.96
2023-02-13T13:25:36.843Z,12.96
2023-02-13T13:28:06.899Z,12.99
2023-02-13T13:30:36.139Z,13.01
2023-02-13T13:33:07.700Z,13.05
2023-02-13T13:35:35.217Z,13.09
2023-02-13T13:38:02.933Z,13.11
2023-02-13T13:40:30.237Z,13.14
2023-02-13T13:43:03.684Z,13.18
2023-02-13T13:45:38.254Z,13.20
2023-02-13T13:48:08.275Z,13.19
2023-02-13T13:50:37.975Z,13.20
2023-02-13T13:53:06.662Z,13.22
2023-02-13T13:55:36.632Z,13.21
2023-02-13T13:58:03.548Z,13.23
2023-02-13T14:00:30.942Z,13.25
2023-02-13T14:02:59.198Z,13.26
2023-02-13T14:05:26.424Z,13.30
2023-02-13T14:07:56.604Z,13.30
2023-02-13T14:10:26.585Z,13.32
2023-02-13T14:12:53.910Z,13.33
2023-02-13T14:15:23.897Z,13.35
2023-02-13T14:17:52.504Z,13.34
2023-02-13T14:20:22.475Z,13.35
2023-02-13T14:22:49.580Z,13.37
2023-02-13T14:25:19.622Z,13.39
2023-02-13T14:27:55.310Z,13.43
2023-02-13T14:30:27.256Z,13.44
2023-02-13T14:32:54.708Z,13.47
2023-02-13T14:35:24.759Z,13.45
2023-02-13T14:37:53.299Z,13.49
2023-02-13T14:40:20.561Z,13.52
2023-02-13T14:42:52.041Z,13.54
2023-02-13T14:45:22.348Z,13.54
2023-02-13T14:47:53.669Z,13.55
2023-02-13T14:50:24.852Z,13.56
2023-02-13T14:52:52.752Z,13.55
2023-02-13T14:55:22.773Z,13.58
2023-02-13T14:57:52.568Z,13.62
2023-02-13T15:00:22.739Z,13.63
2023-02-13T15:02:53.714Z,13.66
2023-02-13T15:05:21.034Z,13.66
2023-02-13T15:07:48.856Z,13.65
2023-02-13T15:10:18.941Z,13.68
2023-02-13T15:12:45.905Z,13.73
2023-02-13T15:15:16.144Z,13.76
2023-02-13T15:17:43.316Z,13.76
2023-02-13T15:20:13.275Z,13.74
2023-02-13T15:22:41.762Z,13.72
2023-02-13T15:25:09.236Z,13.71
2023-02-13T15:27:43.294Z,13.71
2023-02-13T15:30:13.290Z,13.73
2023-02-13T15:32:41.731Z,13.73
2023-02-13T15:35:12.438Z,13.69
2023-02-13T15:37:39.420Z,13.67
2023-02-13T15:40:09.482Z,13.65
2023-02-13T15:42:38.207Z,13.63
2023-02-13T15:45:05.671Z,13.62
2023-02-13T15:47:33.437Z,13.61
2023-02-13T15:50:01.012Z,13.62
2023-02-13T15:52:31.065Z,13.58
2023-02-13T15:54:58.211Z,13.56
2023-02-13T15:57:27.120Z,13.56
2023-02-13T15:59:55.895Z,13.53
2023-02-13T16:02:26.026Z,13.51
2023-02-13T16:04:53.730Z,13.51
2023-02-13T16:07:20.947Z,13.47
2023-02-13T16:09:48.195Z,13.46
2023-02-13T16:12:18.316Z,13.44
2023-02-13T16:14:49.029Z,13.43
2023-02-13T16:17:18.706Z,13.44
2023-02-13T16:19:53.274Z,13.43
2023-02-13T16:22:21.956Z,13.39
2023-02-13T16:24:51.185Z,13.33
2023-02-13T16:27:20.767Z,13.31
2023-02-13T16:29:51.569Z,13.27
2023-02-13T16:32:23.137Z,13.25
2023-02-13T16:34:51.112Z,13.21
2023-02-13T16:37:21.150Z,13.17
2023-02-13T16:39:48.113Z,13.13
2023-02-13T16:42:19.617Z,13.10
2023-02-13T16:44:46.551Z,13.07
2023-02-13T16:47:21.256Z,13.04
2023-02-13T16:49:53.373Z,13.01
2023-02-13T16:52:23.679Z,12.98
2023-02-13T16:54:51.031Z,12.95
2023-02-13T16:57:35.679Z,12.91
2023-02-13T17:00:05.902Z,12.89
2023-02-13T17:02:33.338Z,12.84
2023-02-13T17:05:03.580Z,12.79
2023-02-13T17:07:32.223Z,12.75
2023-02-13T17:10:00.619Z,12.72
2023-02-13T17:12:28.997Z,12.71
2023-02-13T17:14:57.456Z,12.69
2023-02-13T17:17:24.863Z,12.67
2023-02-13T17:19:51.835Z,12.64
2023-02-13T17:22:19.120Z,12.60
2023-02-13T17:24:46.175Z,12.54
2023-02-13T17:27:13.077Z,12.51
2023-02-13T17:29:40.202Z,12.49
2023-02-13T17:32:09.533Z,12.50
2023-02-13T17:34:36.551Z,12.46
2023-02-13T17:37:03.463Z,12.46
2023-02-13T17:39:30.411Z,12.44
2023-02-13T17:41:57.395Z,12.42
2023-02-13T17:44:24.474Z,12.40
2023-02-13T17:46:53.360Z,12.37
2023-02-13T17:49:20.712Z,12.36
2023-02-13T17:51:48.140Z,12.34
2023-02-13T17:54:15.387Z,12.32
2023-02-13T17:56:42.370Z,12.29
2023-02-13T17:59:09.383Z,12.28
2023-02-13T18:01:36.422Z,12.25
2023-02-13T18:04:03.498Z,12.21
2023-02-13T18:06:31.461Z,12.18
2023-02-13T18:08:58.501Z,12.14
2023-02-13T18:11:25.680Z,12.09
2023-02-13T18:13:52.869Z,12.04
2023-02-13T18:16:22.941Z,11.98
2023-02-13T18:18:49.965Z,11.92
2023-02-13T18:21:17.006Z,11.88
2023-02-13T18:23:44.056Z,11.83
2023-02-13T18:26:11.116Z,11.81
2023-02-13T18:28:38.443Z,11.75
2023-02-13T18:31:05.574Z,11.75
2023-02-13T18:33:32.793Z,11.73
2023-02-13T18:36:00.624Z,11.74
2023-02-13T18:38:27.739Z,11.74
2023-02-13T18:40:54.834Z,11.72
2023-02-13T18:43:21.939Z,11.71
2023-02-13T18:45:49.301Z,11.70
2023-02-13T18:48:16.271Z,11.67
2023-02-13T18:50:43.311Z,11.64
2023-02-13T18:53:10.507Z,11.64
2023-02-13T18:55:37.919Z,11.62
2023-02-13T18:58:05.531Z,11.57
2023-02-13T19:00:32.581Z,11.52
2023-02-13T19:03:00.033Z,11.49
2023-02-13T19:05:27.329Z,11.47
2023-02-13T19:07:54.371Z,11.44
2023-02-13T19:10:21.549Z,11.40
2023-02-13T19:12:48.660Z,11.39
2023-02-13T19:15:16.895Z,11.36
2023-02-13T19:17:43.996Z,11.34
2023-02-13T19:20:11.394Z,11.30
2023-02-13T19:22:38.532Z,11.26
2023-02-13T19:25:05.653Z,11.22
2023-02-13T19:27:32.597Z,11.20
2023-02-13T19:29:59.734Z,11.17
2023-02-13T19:32:26.762Z,11.13
2023-02-13T19:34:53.690Z,11.09
2023-02-13T19:37:20.654Z,11.05
2023-02-13T19:39:47.693Z,11.01
2023-02-13T19:42:14.647Z,10.97
2023-02-13T19:44:41.533Z,10.96
2023-02-13T19:47:08.552Z,10.93
2023-02-13T19:49:35.540Z,10.90
2023-02-13T19:52:03.994Z,10.86
2023-02-13T19:54:30.986Z,10.82
2023-02-13T19:57:02.090Z,10.79
2023-02-13T19:59:29.216Z,10.73
2023-02-13T20:01:56.201Z,10.69
2023-02-13T20:04:23.183Z,10.65
2023-02-13T20:06:51.096Z,10.60
2023-02-13T20:09:18.215Z,10.57
2023-02-13T20:11:45.900Z,10.53
2023-02-13T20:14:15.334Z,10.50
2023-02-13T20:16:43.272Z,10.47
2023-02-13T20:19:13.357Z,10.46
2023-02-13T20:21:41.813Z,10.45
2023-02-13T20:24:09.392Z,10.42
2023-02-13T20:26:36.665Z,10.41
2023-02-13T20:29:03.570Z,10.40
2023-02-13T20:31:31.017Z,10.38
2023-02-13T20:33:58.645Z,10.36
2023-02-13T20:36:27.691Z,10.33
2023-02-13T20:38:55.733Z,10.32
2023-02-13T20:41:24.087Z,10.33
2023-02-13T20:43:51.557Z,10.31
2023-02-13T20:46:19.273Z,10.29
2023-02-13T20:48:47.699Z,10.26
2023-02-13T20:51:15.737Z,10.24
2023-02-13T20:53:43.466Z,10.23
2023-02-13T20:56:13.885Z,10.20
2023-02-13T20:58:41.844Z,10.18
2023-02-13T21:01:13.334Z,10.18
2023-02-13T21:03:42.672Z,10.18
2023-02-13T21:06:10.715Z,10.15
2023-02-13T21:08:38.831Z,10.10
2023-02-13T21:11:07.843Z,10.06
2023-02-13T21:13:37.485Z,10.03
2023-02-13T21:16:10.134Z,9.99
2023-02-13T21:18:40.731Z,10.00
2023-02-13T21:21:10.243Z,9.95
2023-02-13T21:23:39.368Z,9.94
2023-02-13T21:26:26.663Z,9.93
2023-02-13T21:28:57.818Z,9.93
2023-02-13T21:31:29.616Z,9.88
2023-02-13T21:34:00.104Z,9.84
2023-02-13T21:36:27.611Z,9.84
2023-02-13T21:38:54.544Z,9.81
2023-02-13T21:41:21.911Z,9.80
2023-02-13T21:43:52.669Z,9.80
2023-02-13T21:46:22.744Z,9.76
2023-02-13T21:48:53.837Z,9.74
2023-02-13T21:51:21.063Z,9.72
2023-02-13T21:53:49.265Z,9.72
2023-02-13T21:56:17.378Z,9.71
2023-02-13T21:58:44.518Z,9.72
2023-02-13T22:01:23.978Z,9.69
2023-02-13T22:03:53.010Z,9.67
2023-02-13T22:06:20.295Z,9.64
2023-02-13T22:08:47.727Z,9.63
2023-02-13T22:11:14.694Z,9.62
2023-02-13T22:13:41.936Z,9.60
2023-02-13T22:16:10.500Z,9.60
2023-02-13T22:18:38.711Z,9.58
2023-02-13T22:21:09.092Z,9.57
2023-02-13T22:23:36.968Z,9.58
2023-02-13T22:26:04.677Z,9.57
2023-02-13T22:28:31.556Z,9.56
2023-02-13T22:30:58.949Z,9.54
2023-02-13T22:33:26.175Z,9.55
2023-02-13T22:35:52.926Z,9.55
2023-02-13T22:38:22.794Z,9.54
2023-02-13T22:40:49.601Z,9.52
2023-02-13T22:43:16.340Z,9.51
2023-02-13T22:45:43.188Z,9.49
2023-02-13T22:48:10.054Z,9.46
2023-02-13T22:50:36.799Z,9.48
2023-02-13T22:53:03.557Z,9.46
2023-02-13T22:55:30.284Z,9.47
2023-02-13T22:57:58.514Z,9.45
2023-02-13T23:00:25.348Z,9.43
2023-02-13T23:02:52.097Z,9.42
2023-02-13T23:05:20.626Z,9.41
2023-02-13T23:07:47.490Z,9.39
2023-02-13T23:10:14.368Z,9.39
2023-02-13T23:12:45.707Z,9.38
2023-02-13T23:15:14.881Z,9.38
2023-02-13T23:17:47.830Z,9.41
2023-02-13T23:20:18.948Z,9.45
2023-02-13T23:22:45.905Z,9.44
2023-02-13T23:25:12.961Z,9.42
2023-02-13T23:27:39.965Z,9.43
2023-02-13T23:30:07.978Z,9.39
2023-02-13T23:32:34.933Z,9.35
2023-02-13T23:35:01.976Z,9.30
2023-02-13T23:37:31.947Z,9.28
2023-02-13T23:39:58.982Z,9.31
2023-02-13T23:42:26.038Z,9.33
2023-02-13T23:44:53.011Z,9.32
2023-02-13T23:47:20.014Z,9.28
2023-02-13T23:49:50.173Z,9.25
2023-02-13T23:52:17.034Z,9.26
2023-02-13T23:54:43.941Z,9.27
2023-02-13T23:57:14.058Z,9.25
2023-02-13T23:59:44.095Z,9.24
